Details From RKSS - Seoul Gimpo
To RKTU - Cheongju Intl
Flight Number -
Tags Generated
Created
Modified
Stats Distance 62 nm / 115 km
Max Altitude 0 ft / 0 m
Waypoints 2
Social Downloads 1
Likes 0
Share VATSIM

Download

Looking for another format? Having issues loading an existing format? Contact us
Advertisement - Login to hide

Notes

Generated

Route

RKSS RKTU

ID Type Via Altitude Latitude Longitude Leg Dist Tot Dist Heading (true) Name
O RKSS APT - 0 ft / 0 m 37.56798˚ 126.77553˚ - 0 nm - -
O RKTU APT - 0 ft / 0 m 36.70788˚ 127.48750˚ 61 nm 61 nm 146° / 147° -

Altitude Profile

Advertisement - Login to hide

RKSS

Details ICAO RKSS (GMP)
Name Seoul Gimpo
Region South Korea
Timezone Asia/Seoul (UTC+9.0)
Stats Elevation 58 ft / 18 m (AMSL)
Location 37.558310° 126.790584°
Runways 2
Magnetic Variation 8.397° W

METAR

RKSS 122000Z 31004KT CAVOK M12/M20 Q1032 NOSIG

Decode

TAF

TAF RKSS 121700Z 1218/1324 33008KT CAVOK TNM14/1222Z TXM02/1306Z TNM10/1322Z BECMG 1313/1314 06005KT

Decode

Departure Runways

ID Width Length Bearing (true) Bearing (mag) Surface Threshold Offset Overrun Length
14L 148 ft / 45 m 11,811 ft / 3,600 m 135.13° 143.53° Asphalt 0 ft / 0 m 394 ft / 120 m
14R 197 ft / 60 m 10,499 ft / 3,200 m 135.08° 143.48° Asphalt 0 ft / 0 m 390 ft / 119 m
32L 197 ft / 60 m 10,499 ft / 3,200 m 315.09° 323.49° Asphalt 0 ft / 0 m 385 ft / 117 m
32R 148 ft / 45 m 11,811 ft / 3,600 m 315.15° 323.55° Asphalt 0 ft / 0 m 394 ft / 120 m

RKTU

Details ICAO RKTU (CJJ)
Name CHEONGJU INTL
Region South Korea
Timezone Asia/Seoul (UTC+9.0)
Stats Elevation 191 ft / 58 m (AMSL)
Location 36.716564° 127.499165°
Runways 2
Magnetic Variation 8.221° W

METAR

RKTU 122000Z 12002KT CAVOK M12/M16 Q1031 NOSIG

Decode

TAF

TAF RKTU 121700Z 1218/1324 30008KT 9999 SCT030 TNM13/1221Z TX00/1306Z

Decode

Destination Runways

ID Width Length Bearing (true) Bearing (mag) Surface Threshold Offset Overrun Length
06L 200 ft / 61 m 8,955 ft / 2,729 m 51.72° 59.94° Concrete 0 ft / 0 m 1,000 ft / 305 m
06R 150 ft / 46 m 8,900 ft / 2,713 m 51.91° 60.13° Concrete 0 ft / 0 m 1,000 ft / 305 m
24L 150 ft / 46 m 8,900 ft / 2,713 m 231.93° 240.15° Concrete 0 ft / 0 m 1,000 ft / 305 m
24R 200 ft / 61 m 8,955 ft / 2,729 m 231.73° 239.95° Concrete 0 ft / 0 m 1,000 ft / 305 m

Approach Navaids

Runway Type Ident Frequency Range Bearing (true) Bearing (mag) Slope Elevation
24R Localiser ICHG 111.70 MHz 18 nm / 33 km 231.65° 239.87° - 190 ft / 58 m (AMSL)
24R Glidescope ICHG 111.70 MHz 10 nm / 19 km 233.00° 241.22° 3.00° 190 ft / 58 m (AMSL)
24R DME ICHG 111.70 MHz 18 nm / 33 km - - - 11 ft / 3 m (AMSL)

Popular Alternatives